logo
Search for airport 
image banner adimage banner adimage banner ad
image banner ad

YGTL - Great Lake

Located in Deloraine, Australia

ICAO - , IATA -

Data provided by Airmate  

General information

Coordinates: S41°52'0" E146°43'60"
Elevation is 3392 feet MSL.
Magnetic variation is 14° East
View others Airports in Tasmania

Operational data

Special qualification required
Current time UTC:
Current local time:
Weather at : YMLT - Launceston ( 54 km )
METAR: YMLT 131651Z AUTO 35009KT 1000 BR ////// 10/10 Q1019 RF00.0/000.2 CLD SKY MAY BE OBSC
TAF: TAF AMD YMLT 131558Z 1315/1412 33006KT CAVOK FM132100 33008KT 9999 SCT015 FM140000 33012KT 9999 SCT040 FM141000 34008KT CAVOK PROB30 1316/1322 0300 FG
View NOTAMs / SUP AIP / TFR affecting this airport [VIEW]
Communications frequencies: [VIEW]

Runways:

Airport contact information

Address: Deloraine Australia

Satellite view of YGTL